createdAt,value
2024-05-09T00:00:00.874Z,76.37
2024-05-09T00:01:00.924Z,76.48
2024-05-09T00:02:00.917Z,76.31
2024-05-09T00:03:00.932Z,76.25
2024-05-09T00:04:00.994Z,76.39
2024-05-09T00:05:00.991Z,76.36
2024-05-09T00:06:01.041Z,76.07
2024-05-09T00:07:00.882Z,76.04
2024-05-09T00:08:01.135Z,76.06
2024-05-09T00:09:00.885Z,76.25
2024-05-09T00:10:00.905Z,76.81
2024-05-09T00:11:00.962Z,77.02
2024-05-09T00:12:01.071Z,77.52
2024-05-09T00:13:00.886Z,77.82
2024-05-09T00:14:00.995Z,78.16
2024-05-09T00:15:00.892Z,78.67
2024-05-09T00:16:00.904Z,78.57
2024-05-09T00:17:00.975Z,78.13
2024-05-09T00:18:01.414Z,78.25
2024-05-09T00:19:00.966Z,78.38
2024-05-09T00:20:00.938Z,78.37
2024-05-09T00:21:01.059Z,77.99
2024-05-09T00:22:00.925Z,78.18
2024-05-09T00:23:00.897Z,78.32
2024-05-09T00:24:00.908Z,78.63
2024-05-09T00:25:00.897Z,78.00
2024-05-09T00:26:00.932Z,78.13
2024-05-09T00:27:00.936Z,77.96
2024-05-09T00:28:01.641Z,77.55
2024-05-09T00:29:00.921Z,77.28
2024-05-09T00:30:00.886Z,77.09
2024-05-09T00:31:00.889Z,76.90
2024-05-09T00:32:01.091Z,76.68
2024-05-09T00:33:01.100Z,76.75
2024-05-09T00:34:01.353Z,76.21
2024-05-09T00:35:01.025Z,76.23
2024-05-09T00:36:00.954Z,76.33
2024-05-09T00:37:00.969Z,76.28
2024-05-09T00:38:01.320Z,76.38
2024-05-09T00:39:00.902Z,76.63
2024-05-09T00:40:00.927Z,77.39
2024-05-09T00:41:01.058Z,77.38
2024-05-09T00:42:00.934Z,76.88
2024-05-09T00:43:00.929Z,76.74
2024-05-09T00:44:00.961Z,76.82
2024-05-09T00:45:00.925Z,76.98
2024-05-09T00:46:00.934Z,77.02
2024-05-09T00:47:01.088Z,77.22
2024-05-09T00:48:01.452Z,77.09
2024-05-09T00:49:01.283Z,76.70
2024-05-09T00:50:01.181Z,76.92
2024-05-09T00:51:01.268Z,76.78
2024-05-09T00:52:01.230Z,76.66
2024-05-09T00:53:01.280Z,77.30
2024-05-09T00:54:01.279Z,77.52
2024-05-09T00:55:01.279Z,77.57
2024-05-09T00:56:01.319Z,77.41
2024-05-09T00:57:01.334Z,77.55
2024-05-09T00:58:01.347Z,77.39
2024-05-09T00:59:01.493Z,77.47
2024-05-09T01:00:01.433Z,77.54
2024-05-09T01:01:01.540Z,78.02
2024-05-09T01:02:01.628Z,78.33
2024-05-09T01:03:01.715Z,78.52
2024-05-09T01:04:01.618Z,78.41
2024-05-09T01:05:01.685Z,78.20
2024-05-09T01:06:01.638Z,77.84
2024-05-09T01:07:01.614Z,77.37
2024-05-09T01:08:01.799Z,77.47
2024-05-09T01:09:01.672Z,77.38
2024-05-09T01:10:01.728Z,77.45
2024-05-09T01:11:01.949Z,77.49
2024-05-09T01:12:01.928Z,78.38
2024-05-09T01:13:01.874Z,79.01
2024-05-09T01:14:01.915Z,78.22
2024-05-09T01:15:01.885Z,78.61
2024-05-09T01:16:01.939Z,78.60
2024-05-09T01:17:02.034Z,78.56
2024-05-09T01:18:02.448Z,78.37
2024-05-09T01:19:02.161Z,78.13
2024-05-09T01:20:02.266Z,77.93
2024-05-09T01:21:02.196Z,78.27
2024-05-09T01:22:02.217Z,78.25
2024-05-09T01:23:02.330Z,77.91
2024-05-09T01:24:02.233Z,77.49
2024-05-09T01:25:02.287Z,77.20
2024-05-09T01:26:02.357Z,77.01
2024-05-09T01:27:02.353Z,77.60
2024-05-09T01:28:02.417Z,77.24
2024-05-09T01:29:02.426Z,77.48
2024-05-09T01:30:04.016Z,77.28
2024-05-09T01:31:04.218Z,77.33
2024-05-09T01:32:02.558Z,77.30
2024-05-09T01:33:02.624Z,77.17
2024-05-09T01:34:02.474Z,76.92
2024-05-09T01:35:02.531Z,76.55
2024-05-09T01:36:02.443Z,76.04
2024-05-09T01:37:02.492Z,75.85
2024-05-09T01:38:02.629Z,75.79
2024-05-09T01:39:02.455Z,75.58
2024-05-09T01:40:02.463Z,75.49
2024-05-09T01:41:02.520Z,75.47
2024-05-09T01:42:02.471Z,75.51
2024-05-09T01:43:02.473Z,75.74
2024-05-09T01:44:02.495Z,75.67
2024-05-09T01:45:02.456Z,76.03
2024-05-09T01:46:02.501Z,75.81
2024-05-09T01:47:02.592Z,75.85
2024-05-09T01:48:03.001Z,76.02
2024-05-09T01:49:02.621Z,76.11
2024-05-09T01:50:03.317Z,76.08
2024-05-09T01:51:02.626Z,75.90
2024-05-09T01:52:02.642Z,75.77
2024-05-09T01:53:02.710Z,75.84
2024-05-09T01:54:02.634Z,75.88
2024-05-09T01:55:05.839Z,75.83
2024-05-09T01:56:02.708Z,75.85
2024-05-09T01:57:02.671Z,75.68
2024-05-09T01:58:02.665Z,75.65
2024-05-09T01:59:02.675Z,75.16
2024-05-09T02:00:02.999Z,75.32
2024-05-09T02:01:02.697Z,75.56
2024-05-09T02:02:02.834Z,75.79
2024-05-09T02:03:02.908Z,75.51
2024-05-09T02:04:02.993Z,75.22
2024-05-09T02:05:02.829Z,75.25
2024-05-09T02:06:02.831Z,75.25
2024-05-09T02:07:02.671Z,75.17
2024-05-09T02:08:02.762Z,75.06
2024-05-09T02:09:02.692Z,75.04
2024-05-09T02:10:06.483Z,75.49
2024-05-09T02:11:03.727Z,75.42
2024-05-09T02:12:02.842Z,75.47
2024-05-09T02:13:02.721Z,75.37
2024-05-09T02:14:02.777Z,75.40
2024-05-09T02:15:02.687Z,75.05
2024-05-09T02:16:02.678Z,74.89
2024-05-09T02:17:02.747Z,75.33
2024-05-09T02:18:02.806Z,75.59
2024-05-09T02:19:02.781Z,75.41
2024-05-09T02:20:02.910Z,75.47
2024-05-09T02:21:02.802Z,75.12
2024-05-09T02:22:02.714Z,74.98
2024-05-09T02:23:02.975Z,75.52
2024-05-09T02:24:02.778Z,75.50
2024-05-09T02:25:02.804Z,75.29
2024-05-09T02:26:02.892Z,75.11
2024-05-09T02:27:02.867Z,74.85
2024-05-09T02:28:02.982Z,74.66
2024-05-09T02:29:03.005Z,74.35
2024-05-09T02:30:04.674Z,73.69
2024-05-09T02:31:03.040Z,73.55
2024-05-09T02:32:03.781Z,73.76
2024-05-09T02:33:03.266Z,74.65
2024-05-09T02:34:03.348Z,74.76
2024-05-09T02:35:03.210Z,75.01
2024-05-09T02:36:03.103Z,74.97
2024-05-09T02:37:03.155Z,74.93
2024-05-09T02:38:03.327Z,75.21
2024-05-09T02:39:03.094Z,75.18
2024-05-09T02:40:03.475Z,75.13
2024-05-09T02:41:03.081Z,74.87
2024-05-09T02:42:03.087Z,74.68
2024-05-09T02:43:03.078Z,74.33
2024-05-09T02:44:03.142Z,74.08
2024-05-09T02:45:03.079Z,73.93
2024-05-09T02:46:03.079Z,73.63
2024-05-09T02:47:03.078Z,73.15
2024-05-09T02:48:03.432Z,73.31
2024-05-09T02:49:03.163Z,73.00
2024-05-09T02:50:04.633Z,72.89
2024-05-09T02:51:03.267Z,72.72
2024-05-09T02:52:03.150Z,72.74
2024-05-09T02:53:03.167Z,72.48
2024-05-09T02:54:03.134Z,72.54
2024-05-09T02:55:03.254Z,72.88
2024-05-09T02:56:03.180Z,73.12
2024-05-09T02:57:03.150Z,73.75
2024-05-09T02:58:03.154Z,73.77
2024-05-09T02:59:03.231Z,73.66
2024-05-09T03:00:06.200Z,73.59
2024-05-09T03:01:03.237Z,73.50
2024-05-09T03:02:03.273Z,73.85
2024-05-09T03:03:03.334Z,73.69
2024-05-09T03:04:03.305Z,73.74
2024-05-09T03:05:03.202Z,74.84
2024-05-09T03:06:03.176Z,74.29
2024-05-09T03:07:03.169Z,74.39
2024-05-09T03:08:03.248Z,75.00
2024-05-09T03:09:03.131Z,74.60
2024-05-09T03:10:03.488Z,75.19
2024-05-09T03:11:03.189Z,74.95
2024-05-09T03:12:03.462Z,75.60
2024-05-09T03:13:03.200Z,75.28
2024-05-09T03:14:03.196Z,75.01
2024-05-09T03:15:03.192Z,75.32
2024-05-09T03:16:03.178Z,75.11
2024-05-09T03:17:03.279Z,74.87
2024-05-09T03:18:03.608Z,75.20
2024-05-09T03:19:03.256Z,74.88
2024-05-09T03:20:05.121Z,75.13
2024-05-09T03:21:03.338Z,74.88
2024-05-09T03:22:03.175Z,75.02
2024-05-09T03:23:03.733Z,74.90
2024-05-09T03:24:03.191Z,75.07
2024-05-09T03:25:03.203Z,75.12
2024-05-09T03:26:03.232Z,75.20
2024-05-09T03:27:03.197Z,75.52
2024-05-09T03:28:03.220Z,75.49
2024-05-09T03:29:03.312Z,75.79
2024-05-09T03:30:05.497Z,75.41
2024-05-09T03:31:03.189Z,75.38
2024-05-09T03:32:03.361Z,75.65
2024-05-09T03:33:04.404Z,75.70
2024-05-09T03:34:03.451Z,75.57
2024-05-09T03:35:03.257Z,75.52
2024-05-09T03:36:03.219Z,75.55
2024-05-09T03:37:03.254Z,75.22
2024-05-09T03:38:03.357Z,75.31
2024-05-09T03:39:03.203Z,75.42
2024-05-09T03:40:05.604Z,75.61
2024-05-09T03:41:03.264Z,75.31
2024-05-09T03:42:03.245Z,75.19
2024-05-09T03:43:03.264Z,75.01
2024-05-09T03:44:03.245Z,74.80
2024-05-09T03:45:03.203Z,74.98
2024-05-09T03:46:03.227Z,74.53
2024-05-09T03:47:03.247Z,74.36
2024-05-09T03:48:03.425Z,74.47
2024-05-09T03:49:03.361Z,74.22
2024-05-09T03:50:05.639Z,74.87
2024-05-09T03:51:03.434Z,75.05
2024-05-09T03:52:03.467Z,75.10
2024-05-09T03:53:03.615Z,74.72
2024-05-09T03:54:03.549Z,74.64
2024-05-09T03:55:03.592Z,74.88
2024-05-09T03:56:03.694Z,74.96
2024-05-09T03:57:03.721Z,74.93
2024-05-09T03:58:03.762Z,75.05
2024-05-09T03:59:03.944Z,75.47
2024-05-09T04:00:05.500Z,75.13
2024-05-09T04:01:03.832Z,76.36
2024-05-09T04:02:04.054Z,75.52
2024-05-09T04:03:04.328Z,75.39
2024-05-09T04:04:03.978Z,75.74
2024-05-09T04:05:03.982Z,75.61
2024-05-09T04:06:03.997Z,75.38
2024-05-09T04:07:04.038Z,75.22
2024-05-09T04:08:04.157Z,74.86
2024-05-09T04:09:04.189Z,74.86
2024-05-09T04:10:05.412Z,75.24
2024-05-09T04:11:04.350Z,74.70
2024-05-09T04:12:04.251Z,75.14
2024-05-09T04:13:04.531Z,75.34
2024-05-09T04:14:04.214Z,75.55
2024-05-09T04:15:04.163Z,75.68
2024-05-09T04:16:04.196Z,75.92
2024-05-09T04:17:04.211Z,75.81
2024-05-09T04:18:04.354Z,75.50
2024-05-09T04:19:04.267Z,75.80
2024-05-09T04:20:05.145Z,76.22
2024-05-09T04:21:04.808Z,76.23
2024-05-09T04:22:04.170Z,76.34
2024-05-09T04:23:04.255Z,75.98
2024-05-09T04:24:04.186Z,76.18
2024-05-09T04:25:04.229Z,76.09
2024-05-09T04:26:04.342Z,76.28
2024-05-09T04:27:04.277Z,76.04
2024-05-09T04:28:04.355Z,75.86
2024-05-09T04:29:04.408Z,75.46
2024-05-09T04:30:06.165Z,75.31
2024-05-09T04:31:04.336Z,75.26
2024-05-09T04:32:04.427Z,75.15
2024-05-09T04:33:04.574Z,75.08
2024-05-09T04:34:04.665Z,75.06
2024-05-09T04:35:04.449Z,74.57
2024-05-09T04:36:04.502Z,74.41
2024-05-09T04:37:04.315Z,74.58
2024-05-09T04:38:04.480Z,74.70
2024-05-09T04:39:04.369Z,76.05
2024-05-09T04:40:06.997Z,76.06
2024-05-09T04:41:04.414Z,76.30
2024-05-09T04:42:04.356Z,75.84
2024-05-09T04:43:04.391Z,75.33
2024-05-09T04:44:12.277Z,75.33
2024-05-09T04:45:12.186Z,75.31
2024-05-09T04:46:12.217Z,75.14
2024-05-09T04:47:12.351Z,74.91
2024-05-09T04:48:12.494Z,74.99
2024-05-09T04:49:12.353Z,74.96
2024-05-09T04:50:20.996Z,74.72
2024-05-09T04:51:13.319Z,74.63
2024-05-09T04:52:12.251Z,74.20
2024-05-09T04:53:12.339Z,73.96
2024-05-09T04:54:25.757Z,73.81
2024-05-09T04:55:13.299Z,73.13
2024-05-09T04:56:12.338Z,73.04
2024-05-09T04:57:12.282Z,73.31
2024-05-09T04:58:12.362Z,74.45
2024-05-09T04:59:12.370Z,73.75
2024-05-09T05:00:14.976Z,73.11
2024-05-09T05:01:13.324Z,73.28
2024-05-09T05:02:12.341Z,73.61
2024-05-09T05:03:14.872Z,73.98
2024-05-09T05:04:12.375Z,74.55
2024-05-09T05:05:12.438Z,74.55
2024-05-09T05:06:12.284Z,75.75
2024-05-09T05:07:12.290Z,76.13
2024-05-09T05:08:12.765Z,76.32
2024-05-09T05:09:12.291Z,75.90
2024-05-09T05:10:21.325Z,76.03
2024-05-09T05:11:13.518Z,75.74
2024-05-09T05:12:12.532Z,75.42
2024-05-09T05:13:12.317Z,76.56
2024-05-09T05:14:12.338Z,77.49
2024-05-09T05:15:12.301Z,76.90
2024-05-09T05:16:12.292Z,76.30
2024-05-09T05:17:12.347Z,76.16
2024-05-09T05:18:12.421Z,75.94
2024-05-09T05:19:16.017Z,75.61
2024-05-09T05:20:17.852Z,75.29
2024-05-09T05:21:13.373Z,75.29
2024-05-09T05:22:12.300Z,75.50
2024-05-09T05:23:12.464Z,75.82
2024-05-09T05:24:12.314Z,76.67
2024-05-09T05:25:12.328Z,75.92
2024-05-09T05:26:12.444Z,75.73
2024-05-09T05:27:12.330Z,75.82
2024-05-09T05:28:12.319Z,75.26
2024-05-09T05:29:12.468Z,74.61
2024-05-09T05:31:12.351Z,75.30
2024-05-09T05:32:12.516Z,75.39
2024-05-09T05:33:12.688Z,75.38
2024-05-09T05:34:12.409Z,74.73
2024-05-09T05:35:12.488Z,74.56
2024-05-09T05:36:12.572Z,74.22
2024-05-09T05:37:12.542Z,74.26
2024-05-09T05:38:12.586Z,73.37
2024-05-09T05:39:12.572Z,73.38
2024-05-09T05:40:20.927Z,73.92
2024-05-09T05:41:13.664Z,74.17
2024-05-09T05:42:12.587Z,74.16
2024-05-09T05:43:12.626Z,74.95
2024-05-09T05:44:12.618Z,73.81
2024-05-09T05:45:12.597Z,73.22
2024-05-09T05:46:12.608Z,74.10
2024-05-09T05:47:12.734Z,74.02
2024-05-09T05:48:12.863Z,74.02
2024-05-09T05:49:12.842Z,73.75
2024-05-09T05:50:23.634Z,73.67
2024-05-09T05:51:13.869Z,73.08
2024-05-09T05:52:12.628Z,72.38
2024-05-09T05:53:12.677Z,72.02
2024-05-09T05:54:12.606Z,71.64
2024-05-09T05:55:12.636Z,72.56
2024-05-09T05:56:12.690Z,72.35
2024-05-09T05:57:12.616Z,72.23
2024-05-09T05:58:12.752Z,72.12
2024-05-09T05:59:15.045Z,73.30
2024-05-09T06:01:12.691Z,72.50
2024-05-09T06:02:12.767Z,72.45
2024-05-09T06:03:13.311Z,73.14
2024-05-09T06:04:12.770Z,73.77
2024-05-09T06:05:12.797Z,73.66
2024-05-09T06:06:12.756Z,75.07
2024-05-09T06:07:12.743Z,74.83
2024-05-09T06:08:12.971Z,73.15
2024-05-09T06:09:12.872Z,72.85
2024-05-09T06:10:17.645Z,72.05
2024-05-09T06:11:14.035Z,72.32
2024-05-09T06:12:13.011Z,71.22
2024-05-09T06:13:13.572Z,70.80
2024-05-09T06:14:12.979Z,70.49
2024-05-09T06:15:12.911Z,70.59
2024-05-09T06:16:12.856Z,72.09
2024-05-09T06:17:12.945Z,70.31
2024-05-09T06:18:13.281Z,70.41
2024-05-09T06:19:13.004Z,69.54
2024-05-09T06:20:20.090Z,70.40
2024-05-09T06:21:14.250Z,68.40
2024-05-09T06:22:12.903Z,67.86
2024-05-09T06:23:13.319Z,66.43
2024-05-09T06:24:12.907Z,66.61
2024-05-09T06:25:12.874Z,66.39
2024-05-09T06:26:12.963Z,64.77
2024-05-09T06:27:12.918Z,63.27
2024-05-09T06:28:12.950Z,63.28
2024-05-09T06:29:12.908Z,62.96
2024-05-09T06:30:24.869Z,63.36
2024-05-09T06:31:13.936Z,62.79
2024-05-09T06:32:13.017Z,62.28
2024-05-09T06:33:14.946Z,63.04
2024-05-09T06:34:12.983Z,63.61
2024-05-09T06:35:12.994Z,63.21
2024-05-09T06:36:12.938Z,63.42
2024-05-09T06:37:12.902Z,63.16
2024-05-09T06:38:13.054Z,63.27
2024-05-09T06:39:12.911Z,64.01
2024-05-09T06:40:17.374Z,63.34
2024-05-09T06:41:13.005Z,65.30
2024-05-09T06:42:12.933Z,65.88
2024-05-09T06:43:13.056Z,65.05
2024-05-09T06:44:13.025Z,64.91
2024-05-09T06:45:12.981Z,64.95
2024-05-09T06:46:12.956Z,64.65
2024-05-09T06:47:13.076Z,64.56
2024-05-09T06:48:13.199Z,64.26
2024-05-09T06:49:13.082Z,63.96
2024-05-09T06:50:20.357Z,63.15
2024-05-09T06:51:14.081Z,63.91
2024-05-09T06:52:12.942Z,62.43
2024-05-09T06:53:13.020Z,63.63
2024-05-09T06:54:12.957Z,63.37
2024-05-09T06:55:12.968Z,62.70
2024-05-09T06:56:13.010Z,63.61
2024-05-09T06:57:12.969Z,62.33
2024-05-09T06:58:13.020Z,62.76
2024-05-09T06:59:12.978Z,61.31
2024-05-09T07:00:19.101Z,62.04
2024-05-09T07:01:14.043Z,61.02
2024-05-09T07:02:13.024Z,61.60
2024-05-09T07:03:15.277Z,58.68
2024-05-09T07:04:13.116Z,59.70
2024-05-09T07:05:13.107Z,61.27
2024-05-09T07:06:13.024Z,60.40
2024-05-09T07:07:12.967Z,61.39
2024-05-09T07:08:13.149Z,61.82
2024-05-09T07:09:12.983Z,61.51
2024-05-09T07:10:21.513Z,62.40
2024-05-09T07:11:14.150Z,61.28
2024-05-09T07:12:13.073Z,61.44
2024-05-09T07:13:13.232Z,61.83
2024-05-09T07:14:13.020Z,61.07
2024-05-09T07:15:13.010Z,59.52
2024-05-09T07:16:13.018Z,59.00
2024-05-09T07:17:13.067Z,58.80
2024-05-09T07:18:13.698Z,57.96
2024-05-09T07:19:13.292Z,57.58
2024-05-09T07:20:19.964Z,57.61
2024-05-09T07:21:14.121Z,57.81
2024-05-09T07:22:13.024Z,57.68
2024-05-09T07:23:13.278Z,57.20
2024-05-09T07:24:12.993Z,57.10
2024-05-09T07:25:13.026Z,55.63
2024-05-09T07:26:13.077Z,54.50
2024-05-09T07:27:13.001Z,54.34
2024-05-09T07:28:13.042Z,53.63
2024-05-09T07:29:13.031Z,54.15
2024-05-09T07:30:19.908Z,53.02
2024-05-09T07:31:14.029Z,52.36
2024-05-09T07:32:13.079Z,51.54
2024-05-09T07:33:13.142Z,52.47
2024-05-09T07:34:13.140Z,54.82
2024-05-09T07:35:13.057Z,53.71
2024-05-09T07:36:13.045Z,54.62
2024-05-09T07:37:13.034Z,54.56
2024-05-09T07:38:13.132Z,55.40
2024-05-09T07:39:13.346Z,55.15
2024-05-09T07:40:21.261Z,55.63
2024-05-09T07:41:14.119Z,55.73
2024-05-09T07:42:13.085Z,54.12
2024-05-09T07:43:13.307Z,54.97
2024-05-09T07:44:13.101Z,57.42
2024-05-09T07:47:14.094Z,55.14
2024-05-09T07:48:28.860Z,54.94
2024-05-09T07:49:44.847Z,53.86
2024-05-09T07:53:29.304Z,52.11
2024-05-09T07:53:37.498Z,52.58
2024-05-09T07:54:14.192Z,52.05
2024-05-09T07:55:13.256Z,52.94
2024-05-09T07:56:13.832Z,52.85
2024-05-09T07:57:13.131Z,51.72
2024-05-09T07:58:13.083Z,52.25
2024-05-09T07:59:13.107Z,52.18
2024-05-09T08:00:17.318Z,53.35
2024-05-09T08:01:14.210Z,53.34
2024-05-09T08:02:13.466Z,52.29
2024-05-09T08:03:13.132Z,51.60
2024-05-09T08:04:13.170Z,52.69
2024-05-09T08:05:13.344Z,52.44
2024-05-09T08:06:13.109Z,53.49
2024-05-09T08:07:13.199Z,52.07
2024-05-09T08:08:13.108Z,51.58
2024-05-09T08:09:16.935Z,51.51
2024-05-09T08:10:18.721Z,53.39
2024-05-09T08:11:14.150Z,53.14
2024-05-09T08:12:13.086Z,53.63
2024-05-09T08:13:13.146Z,53.84
2024-05-09T08:14:13.088Z,53.00
2024-05-09T08:15:13.105Z,53.65
2024-05-09T08:16:13.143Z,52.95
2024-05-09T08:17:13.105Z,52.66
2024-05-09T08:18:13.299Z,54.55
2024-05-09T08:19:13.284Z,54.21
2024-05-09T08:21:13.130Z,53.57
2024-05-09T08:22:13.197Z,52.75
2024-05-09T08:23:13.106Z,52.52
2024-05-09T08:24:13.117Z,54.21
2024-05-09T08:25:14.114Z,54.71
2024-05-09T08:26:13.132Z,53.52
2024-05-09T08:27:13.142Z,53.73
2024-05-09T08:28:13.303Z,53.42
2024-05-09T08:29:13.122Z,53.03
2024-05-09T08:30:21.578Z,53.09
2024-05-09T08:31:14.211Z,53.25
2024-05-09T08:32:13.154Z,51.63
2024-05-09T08:33:13.189Z,52.18
2024-05-09T08:34:13.234Z,51.79
2024-05-09T08:35:13.108Z,49.99
2024-05-09T08:36:13.120Z,52.07
2024-05-09T08:37:19.706Z,52.04
2024-05-09T08:38:14.216Z,52.39
2024-05-09T08:39:13.134Z,55.03
2024-05-09T08:40:19.843Z,55.21
2024-05-09T08:41:14.164Z,54.79
2024-05-09T08:42:13.151Z,54.35
2024-05-09T08:43:13.398Z,53.92
2024-05-09T08:44:13.145Z,54.16
2024-05-09T08:45:13.148Z,53.36
2024-05-09T08:46:13.310Z,52.75
2024-05-09T08:47:13.162Z,53.10
2024-05-09T08:48:13.677Z,52.08
2024-05-09T08:49:13.237Z,52.45
2024-05-09T08:50:23.560Z,51.06
2024-05-09T08:51:14.199Z,49.46
2024-05-09T08:52:13.160Z,49.44
2024-05-09T08:53:13.162Z,50.01
2024-05-09T08:54:13.145Z,50.85
2024-05-09T08:55:13.212Z,48.56
2024-05-09T08:56:14.211Z,48.66
2024-05-09T08:57:13.163Z,48.80
2024-05-09T08:58:13.345Z,48.87
2024-05-09T08:59:13.138Z,47.77
2024-05-09T09:00:18.022Z,50.41
2024-05-09T09:01:14.209Z,51.39
2024-05-09T09:02:13.423Z,50.85
2024-05-09T09:03:13.172Z,50.33
2024-05-09T09:04:13.373Z,50.19
2024-05-09T09:05:13.265Z,51.44
2024-05-09T09:06:13.129Z,51.37
2024-05-09T09:07:13.300Z,51.31
2024-05-09T09:08:13.187Z,49.75
2024-05-09T09:09:13.166Z,48.77
2024-05-09T09:11:13.166Z,49.17
2024-05-09T09:12:13.162Z,49.62
2024-05-09T09:13:13.256Z,47.58
2024-05-09T09:14:13.230Z,46.24
2024-05-09T09:15:13.239Z,47.19
2024-05-09T09:16:13.316Z,46.19
2024-05-09T09:17:13.305Z,47.04
2024-05-09T09:18:13.460Z,50.29
2024-05-09T09:19:13.493Z,50.26
2024-05-09T09:20:16.608Z,49.22
2024-05-09T09:21:14.419Z,49.29
2024-05-09T09:22:13.476Z,47.82
2024-05-09T09:23:13.878Z,46.76
2024-05-09T09:24:13.412Z,45.34
2024-05-09T09:25:13.448Z,43.66
2024-05-09T09:26:13.469Z,42.11
2024-05-09T09:27:13.425Z,42.15
2024-05-09T09:28:13.643Z,43.32
2024-05-09T09:29:13.449Z,43.41
2024-05-09T09:30:27.656Z,42.77
2024-05-09T09:31:14.481Z,42.76
2024-05-09T09:32:13.424Z,42.82
2024-05-09T09:33:13.628Z,43.51
2024-05-09T09:34:13.531Z,42.90
2024-05-09T09:35:13.434Z,43.07
2024-05-09T09:36:13.512Z,43.84
2024-05-09T09:37:13.464Z,43.49
2024-05-09T09:38:13.452Z,43.05
2024-05-09T09:39:13.447Z,45.63
2024-05-09T09:40:15.430Z,46.25
2024-05-09T09:41:13.496Z,46.35
2024-05-09T09:42:13.432Z,45.53
2024-05-09T09:43:13.753Z,47.81
2024-05-09T09:44:13.426Z,46.71
2024-05-09T09:45:13.447Z,46.48
2024-05-09T09:46:13.608Z,46.65
2024-05-09T09:47:13.610Z,45.06
2024-05-09T09:48:13.708Z,44.86
2024-05-09T09:49:16.864Z,44.87
2024-05-09T09:50:16.994Z,44.98
2024-05-09T09:51:14.651Z,44.00
2024-05-09T09:52:13.881Z,44.57
2024-05-09T09:53:13.719Z,43.57
2024-05-09T09:54:13.653Z,43.40
2024-05-09T09:55:13.883Z,43.57
2024-05-09T09:56:13.672Z,46.00
2024-05-09T09:57:13.664Z,47.24
2024-05-09T09:58:14.535Z,46.14
2024-05-09T09:59:13.679Z,45.73
2024-05-09T10:00:17.435Z,46.09
2024-05-09T10:01:14.789Z,44.67
2024-05-09T10:02:13.856Z,45.32
2024-05-09T10:03:13.784Z,45.96
2024-05-09T10:04:13.729Z,45.59
2024-05-09T10:05:13.810Z,44.77
2024-05-09T10:06:13.703Z,43.96
2024-05-09T10:07:13.863Z,43.61
2024-05-09T10:08:13.696Z,43.01
2024-05-09T10:09:13.726Z,42.46
2024-05-09T10:10:16.357Z,42.76
2024-05-09T10:11:14.718Z,43.10
2024-05-09T10:12:13.730Z,43.05
2024-05-09T10:13:13.823Z,42.60
2024-05-09T10:14:13.697Z,43.16
2024-05-09T10:15:13.681Z,42.58
2024-05-09T10:16:13.758Z,43.35
2024-05-09T10:17:13.716Z,44.63
2024-05-09T10:18:13.998Z,45.07
2024-05-09T10:19:13.827Z,44.24
2024-05-09T10:20:21.351Z,43.32
2024-05-09T10:21:14.760Z,44.47
2024-05-09T10:22:13.759Z,44.45
2024-05-09T10:23:13.748Z,43.82
2024-05-09T10:24:13.715Z,42.92
2024-05-09T10:25:13.828Z,42.50
2024-05-09T10:26:13.708Z,42.47
2024-05-09T10:27:13.722Z,42.64
2024-05-09T10:28:13.830Z,42.16
2024-05-09T10:29:13.714Z,42.20
2024-05-09T10:30:21.261Z,41.80
2024-05-09T10:31:14.843Z,41.62
2024-05-09T10:32:13.749Z,41.22
2024-05-09T10:33:13.885Z,41.06
2024-05-09T10:34:13.943Z,40.51
2024-05-09T10:35:13.756Z,40.37
2024-05-09T10:36:13.741Z,40.00
2024-05-09T10:37:13.802Z,40.67
2024-05-09T10:38:13.762Z,40.65
2024-05-09T10:39:13.750Z,40.79
2024-05-09T10:40:20.299Z,40.04
2024-05-09T10:41:14.763Z,40.38
2024-05-09T10:42:13.745Z,39.29
2024-05-09T10:43:13.843Z,39.00
2024-05-09T10:44:13.736Z,38.79
2024-05-09T10:45:13.732Z,38.54
2024-05-09T10:46:13.866Z,38.53
2024-05-09T10:47:13.810Z,38.61
2024-05-09T10:48:14.399Z,39.92
2024-05-09T10:49:13.852Z,40.55
2024-05-09T10:51:13.765Z,41.78
2024-05-09T10:52:13.751Z,42.90
2024-05-09T10:53:13.776Z,44.42
2024-05-09T10:54:13.782Z,44.39
2024-05-09T10:55:13.943Z,44.22
2024-05-09T10:56:13.923Z,44.56
2024-05-09T10:57:13.925Z,44.64
2024-05-09T10:58:14.077Z,44.26
2024-05-09T10:59:14.046Z,45.55
2024-05-09T11:00:19.482Z,46.16
2024-05-09T11:01:15.182Z,45.67
2024-05-09T11:02:14.214Z,45.15
2024-05-09T11:03:14.164Z,44.08
2024-05-09T11:04:14.434Z,43.56
2024-05-09T11:05:14.311Z,42.76
2024-05-09T11:06:14.064Z,41.72
2024-05-09T11:07:14.088Z,41.16
2024-05-09T11:08:14.089Z,40.39
2024-05-09T11:09:14.082Z,40.20
2024-05-09T11:10:17.921Z,42.62
2024-05-09T11:11:15.164Z,44.25
2024-05-09T11:12:14.223Z,43.60
2024-05-09T11:13:14.247Z,42.68
2024-05-09T11:14:14.115Z,41.92
2024-05-09T11:15:14.121Z,43.36
2024-05-09T11:16:14.194Z,46.06
2024-05-09T11:17:14.164Z,46.42
2024-05-09T11:18:14.269Z,46.03
2024-05-09T11:19:14.319Z,45.43
2024-05-09T11:20:22.577Z,45.03
2024-05-09T11:21:15.099Z,44.19
2024-05-09T11:22:14.297Z,43.36
2024-05-09T11:23:14.150Z,42.57
2024-05-09T11:24:14.166Z,41.51
2024-05-09T11:25:14.235Z,41.43
2024-05-09T11:26:14.112Z,40.41
2024-05-09T11:27:14.105Z,40.28
2024-05-09T11:28:14.122Z,41.01
2024-05-09T11:29:17.058Z,41.28
2024-05-09T11:30:20.887Z,41.31
2024-05-09T11:31:15.227Z,41.32
2024-05-09T11:32:14.209Z,43.13
2024-05-09T11:33:14.268Z,42.27
2024-05-09T11:34:14.126Z,42.86
2024-05-09T11:35:14.158Z,43.21
2024-05-09T11:36:14.142Z,42.92
2024-05-09T11:37:14.263Z,42.28
2024-05-09T11:38:14.193Z,41.28
2024-05-09T11:39:14.149Z,40.44
2024-05-09T11:40:21.337Z,39.45
2024-05-09T11:41:15.120Z,39.61
2024-05-09T11:42:14.157Z,39.09
2024-05-09T11:43:14.206Z,38.92
2024-05-09T11:44:14.181Z,38.73
2024-05-09T11:45:14.159Z,39.41
2024-05-09T11:46:14.467Z,39.82
2024-05-09T11:47:14.406Z,39.41
2024-05-09T11:48:14.245Z,38.61
2024-05-09T11:49:14.331Z,40.35
2024-05-09T11:50:22.471Z,40.08
2024-05-09T11:51:15.159Z,39.93
2024-05-09T11:52:14.206Z,40.05
2024-05-09T11:53:14.171Z,39.46
2024-05-09T11:54:14.150Z,39.56
2024-05-09T11:55:14.393Z,39.28
2024-05-09T11:56:14.178Z,42.05
2024-05-09T11:57:14.183Z,39.95
2024-05-09T11:58:14.265Z,39.65
2024-05-09T11:59:14.169Z,39.73
2024-05-09T12:01:14.232Z,39.43
2024-05-09T12:02:14.469Z,39.32
2024-05-09T12:03:14.321Z,38.73
2024-05-09T12:04:14.420Z,39.47
2024-05-09T12:05:14.211Z,38.71
2024-05-09T12:06:14.244Z,38.77
2024-05-09T12:07:14.353Z,40.17
2024-05-09T12:08:14.365Z,39.85
2024-05-09T12:09:14.278Z,39.41
2024-05-09T12:10:19.729Z,39.20
2024-05-09T12:11:15.477Z,38.71
2024-05-09T12:12:14.393Z,38.68
2024-05-09T12:13:14.492Z,38.16
2024-05-09T12:14:14.389Z,37.13
2024-05-09T12:15:14.390Z,36.70
2024-05-09T12:16:14.535Z,37.30
2024-05-09T12:17:14.446Z,38.66
2024-05-09T12:18:14.516Z,39.48
2024-05-09T12:19:14.483Z,38.85
2024-05-09T12:20:21.421Z,39.25
2024-05-09T12:21:15.413Z,39.04
2024-05-09T12:22:14.662Z,40.14
2024-05-09T12:23:14.438Z,40.38
2024-05-09T12:24:17.773Z,40.25
2024-05-09T12:25:14.506Z,40.53
2024-05-09T12:26:14.375Z,40.16
2024-05-09T12:27:14.394Z,40.43
2024-05-09T12:28:14.567Z,40.59
2024-05-09T12:29:14.414Z,40.41
2024-05-09T12:30:24.449Z,39.78
2024-05-09T12:31:15.450Z,38.89
2024-05-09T12:32:14.566Z,38.53
2024-05-09T12:33:14.544Z,37.48
2024-05-09T12:34:14.532Z,38.80
2024-05-09T12:35:14.450Z,39.74
2024-05-09T12:36:14.426Z,37.95
2024-05-09T12:37:14.461Z,38.16
2024-05-09T12:38:14.395Z,37.86
2024-05-09T12:39:14.456Z,37.10
2024-05-09T12:40:22.856Z,36.72
2024-05-09T12:41:15.472Z,40.02
2024-05-09T12:42:26.322Z,41.42
2024-05-09T12:43:15.452Z,40.49
2024-05-09T12:44:14.442Z,40.45
2024-05-09T12:45:14.487Z,40.56
2024-05-09T12:46:14.499Z,39.09
2024-05-09T12:47:14.507Z,37.50
2024-05-09T12:48:14.509Z,38.53
2024-05-09T12:49:17.355Z,38.99
2024-05-09T12:50:22.318Z,40.06
2024-05-09T12:51:15.471Z,40.19
2024-05-09T12:52:14.627Z,39.38
2024-05-09T12:53:14.464Z,39.02
2024-05-09T12:54:14.474Z,38.67
2024-05-09T12:55:14.608Z,39.51
2024-05-09T12:56:14.438Z,38.99
2024-05-09T12:57:14.436Z,40.37
2024-05-09T12:58:14.642Z,42.03
2024-05-09T12:59:14.443Z,41.98
2024-05-09T13:00:23.441Z,43.39
2024-05-09T13:01:15.578Z,42.63
2024-05-09T13:02:14.599Z,40.50